Time;durP1;ratioP1;P1;durP2;ratioP2;P2;SDS_P1;SDS_P2;PMS_P1;PMS_P2;Temp;Humidity;BMP_temperature;BMP_pressure;BME280_temperature;BME280_humidity;BME280_pressure;Samples;Min_cycle;Max_cycle;Signal;HPM_P1;HPM_P2
2021/08/25 00:00:58;;;;;;;;;;;;;;;;;;5101314;28;19919;-63
2021/08/25 00:03:44;;;;;;;;;;;;;;;;;;5094928;28;19919;-62
2021/08/25 00:06:29;;;;;;;;;;;;;;;;;;5101139;28;20330;-70
2021/08/25 00:09:13;;;;;;;;;;;;;;;;;;5090775;28;19919;-69
2021/08/25 00:11:57;;;;;;;;;;;;;;;;;;5095057;28;19919;-69
2021/08/25 00:14:42;;;;;;;;;;;;;;;;;;5083948;28;19927;-68
2021/08/25 00:17:26;;;;;;;;;;;;;;;;;;5096079;28;19920;-69
2021/08/25 00:20:10;;;;;;;;;;;;;;;;;;5086623;28;19919;-70
2021/08/25 00:22:56;;;;;;;;;;;;;;;;;;5090049;28;19919;-70
2021/08/25 00:25:40;;;;;;;;;;;;;;;;;;5095985;28;20391;-69
2021/08/25 00:28:25;;;;;;;;;;;;;;;;;;5080428;28;19923;-69
2021/08/25 00:31:10;;;;;;;;;;;;;;;;;;5095811;28;19919;-69
2021/08/25 00:33:54;;;;;;;;;;;;;;;;;;5092339;28;19919;-69
2021/08/25 00:36:39;;;;;;;;;;;;;;;;;;5100290;28;19931;-67
2021/08/25 00:39:24;;;;;;;;;;;;;;;;;;5098023;28;19931;-68
2021/08/25 00:42:08;;;;;;;;;;;;;;;;;;5098505;28;19920;-67
2021/08/25 00:44:52;;;;;;;;;;;;;;;;;;5094460;28;19935;-68
2021/08/25 00:47:36;;;;;;;;;;;;;;;;;;5093169;28;19919;-67
2021/08/25 00:50:20;;;;;;;;;;;;;;;;;;5096165;28;19934;-68
2021/08/25 00:53:06;;;;;;;;;;;;;;;;;;5094624;28;19982;-68
2021/08/25 00:55:50;;;;;;;;;;;;;;;;;;5096476;28;20386;-68
2021/08/25 00:58:34;;;;;;;;;;;;;;;;;;5095044;28;19935;-67
2021/08/25 01:01:18;;;;;;;;;;;;;;;;;;5093697;28;19919;-68
2021/08/25 01:04:02;;;;;;;;;;;;;;;;;;5098885;28;19919;-67
2021/08/25 01:06:49;;;;;;;;;;;;;;;;;;5091324;28;20444;-69
2021/08/25 01:09:33;;;;;;;;;;;;;;;;;;5091608;28;19919;-69
2021/08/25 01:12:17;;;;;;;;;;;;;;;;;;5097189;28;19924;-70
2021/08/25 01:15:01;;;;;;;;;;;;;;;;;;5096556;28;19948;-71
2021/08/25 01:17:45;;;;;;;;;;;;;;;;;;5094925;28;20418;-69
2021/08/25 01:20:30;;;;;;;;;;;;;;;;;;5097584;28;19920;-69
2021/08/25 01:23:14;;;;;;;;;;;;;;;;;;5082263;28;19919;-68
2021/08/25 01:25:59;;;;;;;;;;;;;;;;;;5091311;28;19927;-69
2021/08/25 01:28:43;;;;;;;;;;;;;;;;;;5093263;28;20398;-68
2021/08/25 01:31:28;;;;;;;;;;;;;;;;;;5097067;28;19919;-68
2021/08/25 01:34:13;;;;;;;;;;;;;;;;;;5085656;28;19919;-67
2021/08/25 01:36:57;;;;;;;;;;;;;;;;;;5098498;28;19919;-68
2021/08/25 01:39:42;;;;;;;;;;;;;;;;;;5079223;28;19924;-69
2021/08/25 01:42:26;;;;;;;;;;;;;;;;;;5076604;28;19935;-68
2021/08/25 01:45:10;;;;;;;;;;;;;;;;;;5086004;28;19919;-68
2021/08/25 01:47:54;;;;;;;;;;;;;;;;;;5098624;28;19923;-68
2021/08/25 01:50:38;;;;;;;;;;;;;;;;;;5084326;28;19920;-69
2021/08/25 01:53:23;;;;;;;;;;;;;;;;;;5085341;28;19919;-68
2021/08/25 01:56:07;;;;;;;;;;;;;;;;;;5099182;28;20291;-69
2021/08/25 01:58:51;;;;;;;;;;;;;;;;;;5099207;28;20390;-68
2021/08/25 02:01:35;;;;;;;;;;;;;;;;;;5094244;28;20402;-67
2021/08/25 02:04:19;;;;;;;;;;;;;;;;;;5086316;28;19927;-67
2021/08/25 02:07:04;;;;;;;;;;;;;;;;;;5096324;28;19939;-69
2021/08/25 02:09:48;;;;;;;;;;;;;;;;;;5089617;28;20288;-69
2021/08/25 02:12:32;;;;;;;;;;;;;;;;;;5090603;28;19919;-67
2021/08/25 02:15:51;;;;;;;;;;;;;;;;;;5092739;28;20284;-66
2021/08/25 02:19:28;;;;;;;;;;;;;;;;;;5089340;28;19919;-66
2021/08/25 02:22:50;;;;;;;;;;;;;;;;;;5089726;28;19919;-69
2021/08/25 02:25:35;;;;;;;;;;;;;;;;;;5095131;28;19919;-66
2021/08/25 02:28:19;;;;;;;;;;;;;;;;;;5094110;28;19939;-68
2021/08/25 02:31:05;;;;;;;;;;;;;;;;;;5084763;28;19919;-68
2021/08/25 02:33:49;;;;;;;;;;;;;;;;;;5087432;28;19919;-68
2021/08/25 02:36:33;;;;;;;;;;;;;;;;;;5093572;28;19923;-68
2021/08/25 02:39:17;;;;;;;;;;;;;;;;;;5093658;28;19919;-68
2021/08/25 02:42:02;;;;;;;;;;;;;;;;;;5097324;28;19919;-70
2021/08/25 02:44:46;;;;;;;;;;;;;;;;;;5095242;28;19971;-69
2021/08/25 02:47:31;;;;;;;;;;;;;;;;;;5083048;28;19919;-69
2021/08/25 02:54:10;;;;;;;;;;;;;;;;;;5071181;28;19919;-66
2021/08/25 02:57:52;;;;;;;;;;;;;;;;;;5089025;28;19923;-68
2021/08/25 03:01:15;;;;;;;;;;;;;;;;;;5092467;28;20288;-67
2021/08/25 03:07:25;;;;;;;;;;;;;;;;;;5096816;28;19920;-68
2021/08/25 03:10:09;;;;;;;;;;;;;;;;;;5097773;28;19919;-67
2021/08/25 03:12:53;;;;;;;;;;;;;;;;;;5082726;28;20391;-67
2021/08/25 03:15:39;;;;;;;;;;;;;;;;;;5079452;28;19923;-68
2021/08/25 03:18:23;;;;;;;;;;;;;;;;;;5101972;28;19919;-67
2021/08/25 03:21:08;;;;;;;;;;;;;;;;;;5092853;28;20417;-67
2021/08/25 03:23:53;;;;;;;;;;;;;;;;;;5093800;28;19919;-68
2021/08/25 03:26:38;;;;;;;;;;;;;;;;;;5097499;28;20374;-66
2021/08/25 03:29:22;;;;;;;;;;;;;;;;;;5095475;28;19920;-66
2021/08/25 03:32:06;;;;;;;;;;;;;;;;;;5097166;28;19919;-66
2021/08/25 03:34:51;;;;;;;;;;;;;;;;;;5093343;28;19923;-69
2021/08/25 03:37:38;;;;;;;;;;;;;;;;;;5101608;28;19919;-67
2021/08/25 03:40:22;;;;;;;;;;;;;;;;;;5088717;28;19919;-68
2021/08/25 03:43:06;;;;;;;;;;;;;;;;;;5094130;28;19982;-66
2021/08/25 03:45:50;;;;;;;;;;;;;;;;;;5091646;28;19935;-67
2021/08/25 03:48:35;;;;;;;;;;;;;;;;;;5095730;28;19919;-69
2021/08/25 03:51:19;;;;;;;;;;;;;;;;;;5098111;28;19927;-68
2021/08/25 03:54:04;;;;;;;;;;;;;;;;;;5095964;28;19931;-67
2021/08/25 03:56:48;;;;;;;;;;;;;;;;;;5094474;28;20315;-68
2021/08/25 03:59:32;;;;;;;;;;;;;;;;;;5096979;28;19919;-67
2021/08/25 04:02:16;;;;;;;;;;;;;;;;;;5094928;28;19974;-68
2021/08/25 04:05:00;;;;;;;;;;;;;;;;;;5093770;28;19919;-67
2021/08/25 04:07:45;;;;;;;;;;;;;;;;;;5100940;28;19923;-66
2021/08/25 04:10:29;;;;;;;;;;;;;;;;;;5096173;28;19935;-66
2021/08/25 04:13:13;;;;;;;;;;;;;;;;;;5095015;28;19919;-67
2021/08/25 04:15:57;;;;;;;;;;;;;;;;;;5096990;28;20350;-66
2021/08/25 04:18:42;;;;;;;;;;;;;;;;;;5076958;28;20399;-67
2021/08/25 04:21:26;;;;;;;;;;;;;;;;;;5081223;28;19935;-68
2021/08/25 04:24:10;;;;;;;;;;;;;;;;;;5080749;28;19920;-66
2021/08/25 04:26:54;;;;;;;;;;;;;;;;;;5090972;28;19931;-66
2021/08/25 04:29:39;;;;;;;;;;;;;;;;;;5090204;28;19919;-68
2021/08/25 04:32:23;;;;;;;;;;;;;;;;;;5097034;28;19919;-68
2021/08/25 04:35:07;;;;;;;;;;;;;;;;;;5097107;28;19939;-68
2021/08/25 04:37:51;;;;;;;;;;;;;;;;;;5095573;28;19919;-69
2021/08/25 04:40:35;;;;;;;;;;;;;;;;;;5095120;28;20017;-67
2021/08/25 04:43:19;;;;;;;;;;;;;;;;;;5093805;28;19919;-68
2021/08/25 04:46:04;;;;;;;;;;;;;;;;;;5084612;28;19919;-68
2021/08/25 04:48:48;;;;;;;;;;;;;;;;;;5093762;28;20284;-69
2021/08/25 04:51:32;;;;;;;;;;;;;;;;;;5096929;28;19919;-71
2021/08/25 04:54:16;;;;;;;;;;;;;;;;;;5091437;28;20329;-69
2021/08/25 04:57:00;;;;;;;;;;;;;;;;;;5082815;28;19923;-70
2021/08/25 04:59:44;;;;;;;;;;;;;;;;;;5079783;28;19924;-69
2021/08/25 05:02:28;;;;;;;;;;;;;;;;;;5092255;28;19919;-69
2021/08/25 05:05:12;;;;;;;;;;;;;;;;;;5088574;28;19919;-69
2021/08/25 05:07:57;;;;;;;;;;;;;;;;;;5089642;28;19931;-67
2021/08/25 05:10:41;;;;;;;;;;;;;;;;;;5075826;28;19919;-70
2021/08/25 05:13:25;;;;;;;;;;;;;;;;;;5074355;28;19920;-68
2021/08/25 05:16:09;;;;;;;;;;;;;;;;;;5079541;28;19923;-68
2021/08/25 05:18:54;;;;;;;;;;;;;;;;;;5095238;28;19962;-68
2021/08/25 05:21:38;;;;;;;;;;;;;;;;;;5098986;28;19935;-68
2021/08/25 05:24:22;;;;;;;;;;;;;;;;;;5082167;28;19920;-67
2021/08/25 05:27:07;;;;;;;;;;;;;;;;;;5092424;28;19923;-67
2021/08/25 05:29:51;;;;;;;;;;;;;;;;;;5084864;28;20399;-68
2021/08/25 05:32:36;;;;;;;;;;;;;;;;;;5076100;28;19991;-68
2021/08/25 05:35:20;;;;;;;;;;;;;;;;;;5083487;28;19926;-67
2021/08/25 05:38:07;;;;;;;;;;;;;;;;;;5080508;28;20395;-68
2021/08/25 05:40:51;;;;;;;;;;;;;;;;;;5102674;28;19944;-68
2021/08/25 05:43:35;;;;;;;;;;;;;;;;;;5109414;28;19920;-70
2021/08/25 05:46:19;;;;;;;;;;;;;;;;;;5085643;28;20367;-67
2021/08/25 05:49:04;;;;;;;;;;;;;;;;;;5090259;28;19919;-68
2021/08/25 05:51:48;;;;;;;;;;;;;;;;;;5097031;28;19923;-69
2021/08/25 05:54:32;;;;;;;;;;;;;;;;;;5095250;28;19919;-68
2021/08/25 05:57:17;;;;;;;;;;;;;;;;;;5093375;28;19923;-67
2021/08/25 06:00:01;;;;;;;;;;;;;;;;;;5099272;28;19935;-67
2021/08/25 06:02:53;;;;;;;;;;;;;;;;;;5081813;28;20279;-66
2021/08/25 06:05:37;;;;;;;;;;;;;;;;;;5099175;28;20303;-66
2021/08/25 06:08:22;;;;;;;;;;;;;;;;;;5097145;28;20398;-68
2021/08/25 06:11:06;;;;;;;;;;;;;;;;;;5090406;28;19920;-68
2021/08/25 06:13:50;;;;;;;;;;;;;;;;;;5072247;28;19935;-68
2021/08/25 06:16:34;;;;;;;;;;;;;;;;;;5077272;28;19927;-69
2021/08/25 06:19:18;;;;;;;;;;;;;;;;;;5087992;28;19919;-68
2021/08/25 06:22:03;;;;;;;;;;;;;;;;;;5093912;28;20350;-69
2021/08/25 06:24:47;;;;;;;;;;;;;;;;;;5083667;28;19923;-69
2021/08/25 06:27:31;;;;;;;;;;;;;;;;;;5072791;28;19923;-69
2021/08/25 06:30:15;;;;;;;;;;;;;;;;;;5078995;28;19919;-70
2021/08/25 06:32:59;;;;;;;;;;;;;;;;;;5071953;28;19936;-68
2021/08/25 06:35:43;;;;;;;;;;;;;;;;;;5082447;28;19919;-69
2021/08/25 06:38:28;;;;;;;;;;;;;;;;;;5082525;28;19927;-68
2021/08/25 06:41:12;;;;;;;;;;;;;;;;;;5082388;28;19919;-70
2021/08/25 06:43:56;;;;;;;;;;;;;;;;;;5075488;28;19927;-69
2021/08/25 06:46:40;;;;;;;;;;;;;;;;;;5082485;28;19920;-69
2021/08/25 06:49:24;;;;;;;;;;;;;;;;;;5082270;28;19939;-70
2021/08/25 06:52:09;;;;;;;;;;;;;;;;;;5080755;28;19919;-68
2021/08/25 06:54:53;;;;;;;;;;;;;;;;;;5078457;28;19919;-68
2021/08/25 06:57:37;;;;;;;;;;;;;;;;;;5085010;28;19919;-68
2021/08/25 07:00:22;;;;;;;;;;;;;;;;;;5096266;28;19919;-70
2021/08/25 07:03:06;;;;;;;;;;;;;;;;;;5098032;28;19920;-69
2021/08/25 07:05:51;;;;;;;;;;;;;;;;;;5093895;28;19919;-70
2021/08/25 07:08:35;;;;;;;;;;;;;;;;;;5091487;28;19998;-69
2021/08/25 07:11:19;;;;;;;;;;;;;;;;;;5089973;28;19939;-68
2021/08/25 07:14:03;;;;;;;;;;;;;;;;;;5092859;28;19919;-70
2021/08/25 07:16:48;;;;;;;;;;;;;;;;;;5086558;28;19927;-69
2021/08/25 07:19:33;;;;;;;;;;;;;;;;;;5092113;28;19935;-70
2021/08/25 07:22:18;;;;;;;;;;;;;;;;;;5077054;28;19936;-71
2021/08/25 07:25:03;;;;;;;;;;;;;;;;;;5074973;28;19919;-69
2021/08/25 07:27:47;;;;;;;;;;;;;;;;;;5074903;28;19923;-71
2021/08/25 07:30:31;;;;;;;;;;;;;;;;;;5077275;28;19920;-69
2021/08/25 07:33:16;;;;;;;;;;;;;;;;;;5074987;28;20307;-70
2021/08/25 07:36:00;;;;;;;;;;;;;;;;;;5079208;28;19939;-69
2021/08/25 07:38:45;;;;;;;;;;;;;;;;;;5090420;28;19923;-68
2021/08/25 07:41:29;;;;;;;;;;;;;;;;;;5080677;28;19919;-68
2021/08/25 07:44:13;;;;;;;;;;;;;;;;;;5099466;28;20287;-70
2021/08/25 07:46:58;;;;;;;;;;;;;;;;;;5097195;28;19919;-71
2021/08/25 07:49:42;;;;;;;;;;;;;;;;;;5095696;28;19923;-70
2021/08/25 07:52:26;;;;;;;;;;;;;;;;;;5098577;28;20371;-70
2021/08/25 07:55:10;;;;;;;;;;;;;;;;;;5097667;28;19923;-70
2021/08/25 07:57:55;;;;;;;;;;;;;;;;;;5096424;28;19939;-71
2021/08/25 08:00:39;;;;;;;;;;;;;;;;;;5099864;28;19969;-70
2021/08/25 08:03:23;;;;;;;;;;;;;;;;;;5095901;28;19923;-69
2021/08/25 08:06:08;;;;;;;;;;;;;;;;;;5096229;28;19919;-71
2021/08/25 08:08:52;;;;;;;;;;;;;;;;;;5094122;28;19926;-70
2021/08/25 08:11:36;;;;;;;;;;;;;;;;;;5098070;28;19920;-69
2021/08/25 08:14:20;;;;;;;;;;;;;;;;;;5096536;28;19935;-69
2021/08/25 08:17:06;;;;;;;;;;;;;;;;;;5094362;28;19924;-71
2021/08/25 08:19:50;;;;;;;;;;;;;;;;;;5093987;28;19919;-69
2021/08/25 08:22:34;;;;;;;;;;;;;;;;;;5096269;28;19923;-69
2021/08/25 08:25:19;;;;;;;;;;;;;;;;;;5094357;28;20387;-70
2021/08/25 08:28:03;;;;;;;;;;;;;;;;;;5098824;28;19939;-70
2021/08/25 08:30:47;;;;;;;;;;;;;;;;;;5096732;28;20378;-70
2021/08/25 08:33:31;;;;;;;;;;;;;;;;;;5085999;28;19920;-68
2021/08/25 08:36:15;;;;;;;;;;;;;;;;;;5082904;28;20295;-67
2021/08/25 08:38:59;;;;;;;;;;;;;;;;;;5076574;28;19920;-67
2021/08/25 08:41:44;;;;;;;;;;;;;;;;;;5074514;28;19919;-67
2021/08/25 08:44:28;;;;;;;;;;;;;;;;;;5078626;28;19920;-67
2021/08/25 08:47:12;;;;;;;;;;;;;;;;;;5082679;28;20283;-67
2021/08/25 08:49:57;;;;;;;;;;;;;;;;;;5074825;28;19927;-69
2021/08/25 08:52:41;;;;;;;;;;;;;;;;;;5090190;28;19920;-69
2021/08/25 08:55:25;;;;;;;;;;;;;;;;;;5097262;28;20402;-66
2021/08/25 08:58:09;;;;;;;;;;;;;;;;;;5093154;28;19919;-68
2021/08/25 09:00:53;;;;;;;;;;;;;;;;;;5073164;28;19920;-67
2021/08/25 09:03:38;;;;;;;;;;;;;;;;;;5073838;28;19920;-67
2021/08/25 09:06:22;;;;;;;;;;;;;;;;;;5075445;28;19920;-67
2021/08/25 09:09:06;;;;;;;;;;;;;;;;;;5073658;28;19920;-67
2021/08/25 09:11:51;;;;;;;;;;;;;;;;;;5077396;28;19919;-68
2021/08/25 09:14:35;;;;;;;;;;;;;;;;;;5079844;28;19919;-67
2021/08/25 09:17:19;;;;;;;;;;;;;;;;;;5073570;28;19924;-69
2021/08/25 09:20:03;;;;;;;;;;;;;;;;;;5081845;28;19924;-69
2021/08/25 09:22:48;;;;;;;;;;;;;;;;;;5096619;28;19919;-68
2021/08/25 09:25:32;;;;;;;;;;;;;;;;;;5094068;28;19919;-68
2021/08/25 09:28:16;;;;;;;;;;;;;;;;;;5097922;28;20296;-70
2021/08/25 09:31:00;;;;;;;;;;;;;;;;;;5096006;28;20394;-67
2021/08/25 09:33:44;;;;;;;;;;;;;;;;;;5093162;28;19919;-68
2021/08/25 09:36:28;;;;;;;;;;;;;;;;;;5092612;28;19924;-67
2021/08/25 09:39:12;;;;;;;;;;;;;;;;;;5101081;28;19919;-67
2021/08/25 09:41:57;;;;;;;;;;;;;;;;;;5091986;28;20300;-66
2021/08/25 09:44:41;;;;;;;;;;;;;;;;;;5093194;28;19929;-68
2021/08/25 09:47:25;;;;;;;;;;;;;;;;;;5088785;28;20402;-67
2021/08/25 09:50:10;;;;;;;;;;;;;;;;;;5092938;28;20430;-66
2021/08/25 09:52:54;;;;;;;;;;;;;;;;;;5091202;28;19920;-67
2021/08/25 09:55:38;;;;;;;;;;;;;;;;;;5095972;28;19923;-67
2021/08/25 09:58:24;;;;;;;;;;;;;;;;;;5091346;28;19927;-68
2021/08/25 10:01:08;;;;;;;;;;;;;;;;;;5091289;28;19919;-66
2021/08/25 10:03:52;;;;;;;;;;;;;;;;;;5091237;28;19920;-67
2021/08/25 10:06:37;;;;;;;;;;;;;;;;;;5091991;28;20287;-69
2021/08/25 10:09:21;;;;;;;;;;;;;;;;;;5092323;28;19919;-70
2021/08/25 10:12:07;;;;;;;;;;;;;;;;;;5098932;28;19919;-70
2021/08/25 10:14:51;;;;;;;;;;;;;;;;;;5097886;28;19919;-69
2021/08/25 10:17:35;;;;;;;;;;;;;;;;;;5097189;28;19927;-70
2021/08/25 10:20:19;;;;;;;;;;;;;;;;;;5101198;28;19935;-67
2021/08/25 10:23:04;;;;;;;;;;;;;;;;;;5096040;28;19919;-69
2021/08/25 10:25:49;;;;;;;;;;;;;;;;;;5095782;28;19919;-69
2021/08/25 10:28:34;;;;;;;;;;;;;;;;;;5100286;28;19919;-69
2021/08/25 10:31:19;;;;;;;;;;;;;;;;;;5098884;28;19962;-68
2021/08/25 10:34:03;;;;;;;;;;;;;;;;;;5088834;28;19935;-68
2021/08/25 10:36:48;;;;;;;;;;;;;;;;;;5090565;28;19951;-71
2021/08/25 10:39:33;;;;;;;;;;;;;;;;;;5098792;28;19919;-71
2021/08/25 10:42:17;;;;;;;;;;;;;;;;;;5096924;28;19920;-70
2021/08/25 10:45:01;;;;;;;;;;;;;;;;;;5095780;28;19927;-70
2021/08/25 10:47:45;;;;;;;;;;;;;;;;;;5097763;28;19924;-70
2021/08/25 10:50:29;;;;;;;;;;;;;;;;;;5096167;28;19919;-71
2021/08/25 10:53:14;;;;;;;;;;;;;;;;;;5094877;28;20395;-69
2021/08/25 10:55:58;;;;;;;;;;;;;;;;;;5099404;28;20450;-71
2021/08/25 10:58:42;;;;;;;;;;;;;;;;;;5095653;28;19940;-72
2021/08/25 11:01:28;;;;;;;;;;;;;;;;;;5093860;28;20399;-72
2021/08/25 11:04:12;;;;;;;;;;;;;;;;;;5098739;28;20422;-72
2021/08/25 11:06:59;;;;;;;;;;;;;;;;;;5097673;28;19919;-70
2021/08/25 11:09:43;;;;;;;;;;;;;;;;;;5090968;28;19920;-69
2021/08/25 11:12:27;;;;;;;;;;;;;;;;;;5097239;28;20398;-71
2021/08/25 11:15:11;;;;;;;;;;;;;;;;;;5097273;28;20402;-69
2021/08/25 11:17:56;;;;;;;;;;;;;;;;;;5095945;28;19923;-70
2021/08/25 11:20:40;;;;;;;;;;;;;;;;;;5100209;28;19930;-68
2021/08/25 11:23:24;;;;;;;;;;;;;;;;;;5093873;28;20295;-70
2021/08/25 11:26:08;;;;;;;;;;;;;;;;;;5095013;28;19923;-70
2021/08/25 11:28:52;;;;;;;;;;;;;;;;;;5092863;28;19924;-70
2021/08/25 11:31:37;;;;;;;;;;;;;;;;;;5099026;28;20410;-72
2021/08/25 11:34:21;;;;;;;;;;;;;;;;;;5096487;28;19919;-70
2021/08/25 11:37:06;;;;;;;;;;;;;;;;;;5094388;28;19927;-70
2021/08/25 11:39:50;;;;;;;;;;;;;;;;;;5098559;28;19935;-69
2021/08/25 11:42:34;;;;;;;;;;;;;;;;;;5094509;28;20402;-69
2021/08/25 11:45:18;;;;;;;;;;;;;;;;;;5094383;28;19920;-70
2021/08/25 11:48:02;;;;;;;;;;;;;;;;;;5096336;28;19919;-70
2021/08/25 11:50:46;;;;;;;;;;;;;;;;;;5094138;28;19919;-70
2021/08/25 11:53:32;;;;;;;;;;;;;;;;;;5091443;28;19919;-70
2021/08/25 11:56:16;;;;;;;;;;;;;;;;;;5099034;28;21564;-71
2021/08/25 11:59:00;;;;;;;;;;;;;;;;;;5096629;28;19920;-71
2021/08/25 12:01:44;;;;;;;;;;;;;;;;;;5093497;28;19934;-71
2021/08/25 12:04:28;;;;;;;;;;;;;;;;;;5098220;28;19986;-70
2021/08/25 12:07:13;;;;;;;;;;;;;;;;;;5091202;28;19919;-71
2021/08/25 12:09:59;;;;;;;;;;;;;;;;;;5096499;28;19927;-71
2021/08/25 12:12:43;;;;;;;;;;;;;;;;;;5093981;28;20430;-67
2021/08/25 12:15:27;;;;;;;;;;;;;;;;;;5087128;28;19935;-68
2021/08/25 12:18:12;;;;;;;;;;;;;;;;;;5095964;28;19919;-69
2021/08/25 12:20:56;;;;;;;;;;;;;;;;;;5096558;28;19919;-68
2021/08/25 12:23:40;;;;;;;;;;;;;;;;;;5093708;28;19919;-70
2021/08/25 12:26:24;;;;;;;;;;;;;;;;;;5091259;28;19931;-68
2021/08/25 12:29:09;;;;;;;;;;;;;;;;;;5095525;28;20390;-71
2021/08/25 12:31:53;;;;;;;;;;;;;;;;;;5089478;28;19919;-70
2021/08/25 12:34:38;;;;;;;;;;;;;;;;;;5092083;28;19919;-71
2021/08/25 12:37:22;;;;;;;;;;;;;;;;;;5097320;28;19923;-70
2021/08/25 12:40:06;;;;;;;;;;;;;;;;;;5095538;28;20287;-70
2021/08/25 12:42:50;;;;;;;;;;;;;;;;;;5093505;28;20291;-69
2021/08/25 12:45:35;;;;;;;;;;;;;;;;;;5097303;28;19920;-69
2021/08/25 12:48:19;;;;;;;;;;;;;;;;;;5095687;28;19919;-68
2021/08/25 12:51:03;;;;;;;;;;;;;;;;;;5093965;28;19919;-69
2021/08/25 12:53:47;;;;;;;;;;;;;;;;;;5092946;28;19919;-72
2021/08/25 12:56:32;;;;;;;;;;;;;;;;;;5095817;28;19923;-71
2021/08/25 12:59:16;;;;;;;;;;;;;;;;;;5092363;28;19923;-68
2021/08/25 13:02:00;;;;;;;;;;;;;;;;;;5097709;28;19919;-71
2021/08/25 13:04:44;;;;;;;;;;;;;;;;;;5093859;28;19920;-69
2021/08/25 13:07:29;;;;;;;;;;;;;;;;;;5091620;28;20394;-71
2021/08/25 13:10:13;;;;;;;;;;;;;;;;;;5097082;28;19935;-70
2021/08/25 13:12:57;;;;;;;;;;;;;;;;;;5094773;28;19943;-70
2021/08/25 13:15:44;;;;;;;;;;;;;;;;;;5091704;28;19990;-74
2021/08/25 13:18:28;;;;;;;;;;;;;;;;;;5091213;28;19919;-74
2021/08/25 13:21:12;;;;;;;;;;;;;;;;;;5095146;28;19919;-73
2021/08/25 13:23:57;;;;;;;;;;;;;;;;;;5091615;28;19927;-74
2021/08/25 13:26:41;;;;;;;;;;;;;;;;;;5091837;28;19923;-73
2021/08/25 13:29:25;;;;;;;;;;;;;;;;;;5094480;28;20434;-71
2021/08/25 13:32:10;;;;;;;;;;;;;;;;;;5092582;28;19920;-72
2021/08/25 13:34:54;;;;;;;;;;;;;;;;;;5091443;28;20394;-72
2021/08/25 13:37:39;;;;;;;;;;;;;;;;;;5096679;28;19938;-72
2021/08/25 13:40:23;;;;;;;;;;;;;;;;;;5092405;28;20402;-74
2021/08/25 13:43:08;;;;;;;;;;;;;;;;;;5090401;28;19919;-74
2021/08/25 13:45:52;;;;;;;;;;;;;;;;;;5095912;28;19919;-73
2021/08/25 13:48:37;;;;;;;;;;;;;;;;;;5094814;28;20445;-72
2021/08/25 13:51:22;;;;;;;;;;;;;;;;;;5093682;28;19920;-72
2021/08/25 13:54:06;;;;;;;;;;;;;;;;;;5095296;28;19919;-73
2021/08/25 13:56:51;;;;;;;;;;;;;;;;;;5094038;28;19923;-70
2021/08/25 13:59:36;;;;;;;;;;;;;;;;;;5092930;28;20292;-71
2021/08/25 14:02:20;;;;;;;;;;;;;;;;;;5096004;28;19923;-71
2021/08/25 14:05:05;;;;;;;;;;;;;;;;;;5093476;28;19919;-72
2021/08/25 14:07:49;;;;;;;;;;;;;;;;;;5092120;28;20275;-73
2021/08/25 14:10:33;;;;;;;;;;;;;;;;;;5090607;28;19919;-71
2021/08/25 14:13:17;;;;;;;;;;;;;;;;;;5092929;28;19927;-73
2021/08/25 14:16:01;;;;;;;;;;;;;;;;;;5089770;28;20410;-73
2021/08/25 14:18:45;;;;;;;;;;;;;;;;;;5103397;28;19938;-73
2021/08/25 14:21:29;;;;;;;;;;;;;;;;;;5078773;28;19935;-72
2021/08/25 14:24:14;;;;;;;;;;;;;;;;;;5097520;28;19935;-71
2021/08/25 14:26:58;;;;;;;;;;;;;;;;;;5094425;28;19923;-73
2021/08/25 14:29:43;;;;;;;;;;;;;;;;;;5085151;28;19926;-73
2021/08/25 14:32:28;;;;;;;;;;;;;;;;;;5095977;28;19935;-73
2021/08/25 14:35:12;;;;;;;;;;;;;;;;;;5073231;28;19920;-72
2021/08/25 14:37:56;;;;;;;;;;;;;;;;;;5095184;28;19924;-71
2021/08/25 14:40:41;;;;;;;;;;;;;;;;;;5098718;28;19919;-71
2021/08/25 14:43:25;;;;;;;;;;;;;;;;;;5092527;28;19920;-74
2021/08/25 14:46:09;;;;;;;;;;;;;;;;;;5097336;28;19935;-75
2021/08/25 14:48:53;;;;;;;;;;;;;;;;;;5098793;28;19919;-70
2021/08/25 14:51:37;;;;;;;;;;;;;;;;;;5098248;28;20406;-74
2021/08/25 14:54:22;;;;;;;;;;;;;;;;;;5103604;28;19919;-73
2021/08/25 14:57:06;;;;;;;;;;;;;;;;;;5099933;28;19927;-74
2021/08/25 14:59:50;;;;;;;;;;;;;;;;;;5102535;28;19919;-72
2021/08/25 15:02:34;;;;;;;;;;;;;;;;;;5077703;28;20319;-72
2021/08/25 15:05:18;;;;;;;;;;;;;;;;;;5090921;28;19919;-71
2021/08/25 15:08:04;;;;;;;;;;;;;;;;;;5098257;28;19935;-72
2021/08/25 15:10:48;;;;;;;;;;;;;;;;;;5091052;28;19919;-71
2021/08/25 15:13:33;;;;;;;;;;;;;;;;;;5091639;28;19920;-73
2021/08/25 15:16:17;;;;;;;;;;;;;;;;;;5097181;28;19931;-73
2021/08/25 15:19:01;;;;;;;;;;;;;;;;;;5095104;28;20422;-72
2021/08/25 15:21:45;;;;;;;;;;;;;;;;;;5096520;28;19928;-73
2021/08/25 15:24:30;;;;;;;;;;;;;;;;;;5094036;28;20300;-72
2021/08/25 15:27:14;;;;;;;;;;;;;;;;;;5094893;28;20383;-72
2021/08/25 15:29:59;;;;;;;;;;;;;;;;;;5099433;28;19919;-73
2021/08/25 15:32:43;;;;;;;;;;;;;;;;;;5095143;28;19919;-72
2021/08/25 15:35:27;;;;;;;;;;;;;;;;;;5094050;28;19919;-72
2021/08/25 15:38:11;;;;;;;;;;;;;;;;;;5098666;28;19927;-73
2021/08/25 15:40:55;;;;;;;;;;;;;;;;;;5096880;28;19923;-72
2021/08/25 15:43:40;;;;;;;;;;;;;;;;;;5094191;28;19918;-71
2021/08/25 15:46:25;;;;;;;;;;;;;;;;;;5090462;28;19920;-72
2021/08/25 15:49:09;;;;;;;;;;;;;;;;;;5096459;28;19942;-73
2021/08/25 15:51:53;;;;;;;;;;;;;;;;;;5098421;28;19923;-71
2021/08/25 15:54:38;;;;;;;;;;;;;;;;;;5092108;28;19927;-73
2021/08/25 15:57:22;;;;;;;;;;;;;;;;;;5098307;28;19925;-73
2021/08/25 16:00:07;;;;;;;;;;;;;;;;;;5092015;28;19935;-73
2021/08/25 16:02:51;;;;;;;;;;;;;;;;;;5093174;28;19919;-73
2021/08/25 16:05:35;;;;;;;;;;;;;;;;;;5099081;28;20381;-72
2021/08/25 16:08:19;;;;;;;;;;;;;;;;;;5095735;28;19919;-71
2021/08/25 16:11:06;;;;;;;;;;;;;;;;;;5093532;28;19919;-72
2021/08/25 16:13:50;;;;;;;;;;;;;;;;;;5092857;28;19919;-72
2021/08/25 16:16:34;;;;;;;;;;;;;;;;;;5095648;28;19923;-73
2021/08/25 16:19:19;;;;;;;;;;;;;;;;;;5098338;28;19918;-71
2021/08/25 16:22:03;;;;;;;;;;;;;;;;;;5095910;28;19920;-73
2021/08/25 16:24:47;;;;;;;;;;;;;;;;;;5094382;28;19919;-72
2021/08/25 16:27:31;;;;;;;;;;;;;;;;;;5093941;28;19924;-72
2021/08/25 16:30:15;;;;;;;;;;;;;;;;;;5112353;28;19922;-72
2021/08/25 16:33:00;;;;;;;;;;;;;;;;;;5097088;28;19919;-70
2021/08/25 16:35:44;;;;;;;;;;;;;;;;;;5097955;28;20283;-73
2021/08/25 16:38:30;;;;;;;;;;;;;;;;;;5089255;28;19924;-70
2021/08/25 16:41:14;;;;;;;;;;;;;;;;;;5093559;28;20714;-73
2021/08/25 16:44:00;;;;;;;;;;;;;;;;;;5089783;28;19927;-71
2021/08/25 16:46:45;;;;;;;;;;;;;;;;;;5090867;28;19935;-72
2021/08/25 16:49:29;;;;;;;;;;;;;;;;;;5102635;28;19919;-70
2021/08/25 16:52:13;;;;;;;;;;;;;;;;;;5094560;28;19923;-71
2021/08/25 16:54:58;;;;;;;;;;;;;;;;;;5100192;28;19919;-71
2021/08/25 16:57:43;;;;;;;;;;;;;;;;;;5096399;28;19924;-71
2021/08/25 17:00:28;;;;;;;;;;;;;;;;;;5099106;28;19919;-71
2021/08/25 17:03:13;;;;;;;;;;;;;;;;;;5093175;28;19927;-71
2021/08/25 17:05:58;;;;;;;;;;;;;;;;;;5091427;28;19920;-71
2021/08/25 17:08:42;;;;;;;;;;;;;;;;;;5091175;28;20288;-71
2021/08/25 17:11:26;;;;;;;;;;;;;;;;;;5090890;28;19923;-72
2021/08/25 17:14:10;;;;;;;;;;;;;;;;;;5098011;28;19923;-71
2021/08/25 17:16:55;;;;;;;;;;;;;;;;;;5098710;28;19930;-72
2021/08/25 17:19:39;;;;;;;;;;;;;;;;;;5092881;28;19919;-71
2021/08/25 17:22:24;;;;;;;;;;;;;;;;;;5089886;28;19920;-71
2021/08/25 17:25:08;;;;;;;;;;;;;;;;;;5099405;28;19919;-71
2021/08/25 17:27:52;;;;;;;;;;;;;;;;;;5092299;28;19931;-72
2021/08/25 17:30:37;;;;;;;;;;;;;;;;;;5097682;28;19943;-72
2021/08/25 17:33:21;;;;;;;;;;;;;;;;;;5097326;28;20013;-71
2021/08/25 17:36:05;;;;;;;;;;;;;;;;;;5094160;28;19919;-71
2021/08/25 17:38:49;;;;;;;;;;;;;;;;;;5090223;28;19935;-71
2021/08/25 17:41:35;;;;;;;;;;;;;;;;;;5096549;28;19919;-71
2021/08/25 17:44:19;;;;;;;;;;;;;;;;;;5094663;28;19934;-72
2021/08/25 17:47:03;;;;;;;;;;;;;;;;;;5091761;28;19982;-71
2021/08/25 17:49:48;;;;;;;;;;;;;;;;;;5096614;28;20394;-71
2021/08/25 17:52:32;;;;;;;;;;;;;;;;;;5089619;28;19935;-70
2021/08/25 17:55:19;;;;;;;;;;;;;;;;;;5092300;28;20285;-71
2021/08/25 17:58:03;;;;;;;;;;;;;;;;;;5093001;28;20398;-72
2021/08/25 18:00:47;;;;;;;;;;;;;;;;;;5096231;28;19990;-71
2021/08/25 18:03:31;;;;;;;;;;;;;;;;;;5092155;28;19919;-72
2021/08/25 18:06:16;;;;;;;;;;;;;;;;;;5096651;28;20398;-72
2021/08/25 18:09:00;;;;;;;;;;;;;;;;;;5096118;28;20410;-71
2021/08/25 18:11:45;;;;;;;;;;;;;;;;;;5090596;28;19919;-71
2021/08/25 18:14:29;;;;;;;;;;;;;;;;;;5088137;28;19919;-71
2021/08/25 18:17:13;;;;;;;;;;;;;;;;;;5096535;28;19927;-71
2021/08/25 18:19:57;;;;;;;;;;;;;;;;;;5092797;28;19919;-72
2021/08/25 18:22:41;;;;;;;;;;;;;;;;;;5091930;28;19925;-72
2021/08/25 18:25:26;;;;;;;;;;;;;;;;;;5101320;28;20287;-71
2021/08/25 18:28:10;;;;;;;;;;;;;;;;;;5092036;28;19943;-71
2021/08/25 18:30:54;;;;;;;;;;;;;;;;;;5096385;28;19920;-71
2021/08/25 18:33:38;;;;;;;;;;;;;;;;;;5096198;28;19927;-71
2021/08/25 18:36:22;;;;;;;;;;;;;;;;;;5102891;28;20418;-71
2021/08/25 18:39:06;;;;;;;;;;;;;;;;;;5095906;28;19938;-71
2021/08/25 18:41:51;;;;;;;;;;;;;;;;;;5103439;28;19920;-71
2021/08/25 18:44:36;;;;;;;;;;;;;;;;;;5103064;28;19923;-72
2021/08/25 18:47:21;;;;;;;;;;;;;;;;;;5101857;28;19919;-72
2021/08/25 18:50:05;;;;;;;;;;;;;;;;;;5093561;28;20402;-72
2021/08/25 18:52:49;;;;;;;;;;;;;;;;;;5106184;28;19919;-72